sensor_id;sensor_type;location;lat;lon;timestamp;pressure;altitude;pressure_sealevel;temperature;humidity
74542;BME280;63015;45.378;20.360;2024-01-10T00:00:57;102415.41;;;-2.32;72.99
74542;BME280;63015;45.378;20.360;2024-01-10T00:02:57;102412.88;;;-2.32;73.09
74542;BME280;63015;45.378;20.360;2024-01-10T00:04:58;102413.66;;;-2.33;73.13
74542;BME280;63015;45.378;20.360;2024-01-10T00:06:58;102407.50;;;-2.35;73.24
74542;BME280;63015;45.378;20.360;2024-01-10T00:08:59;102414.03;;;-2.39;73.25
74542;BME280;63015;45.378;20.360;2024-01-10T00:10:59;102410.59;;;-2.39;73.48
74542;BME280;63015;45.378;20.360;2024-01-10T00:13:00;102414.66;;;-2.41;73.23
74542;BME280;63015;45.378;20.360;2024-01-10T00:15:01;102410.06;;;-2.45;73.03
74542;BME280;63015;45.378;20.360;2024-01-10T00:17:02;102416.69;;;-2.48;73.01
74542;BME280;63015;45.378;20.360;2024-01-10T00:19:02;102411.09;;;-2.54;73.41
74542;BME280;63015;45.378;20.360;2024-01-10T00:21:03;102415.81;;;-2.58;73.51
74542;BME280;63015;45.378;20.360;2024-01-10T00:23:03;102416.84;;;-2.56;73.13
74542;BME280;63015;45.378;20.360;2024-01-10T00:25:04;102420.78;;;-2.60;73.58
74542;BME280;63015;45.378;20.360;2024-01-10T00:27:04;102422.31;;;-2.62;73.63
74542;BME280;63015;45.378;20.360;2024-01-10T00:29:05;102413.13;;;-2.60;73.40
74542;BME280;63015;45.378;20.360;2024-01-10T00:31:06;102419.38;;;-2.56;73.41
74542;BME280;63015;45.378;20.360;2024-01-10T00:33:06;102421.94;;;-2.56;73.25
74542;BME280;63015;45.378;20.360;2024-01-10T00:35:07;102423.72;;;-2.55;73.47
74542;BME280;63015;45.378;20.360;2024-01-10T00:37:07;102425.38;;;-2.56;73.32
74542;BME280;63015;45.378;20.360;2024-01-10T00:39:08;102421.03;;;-2.57;73.28
74542;BME280;63015;45.378;20.360;2024-01-10T00:41:08;102412.22;;;-2.60;73.17
74542;BME280;63015;45.378;20.360;2024-01-10T00:43:09;102423.06;;;-2.63;73.19
74542;BME280;63015;45.378;20.360;2024-01-10T00:45:09;102420.13;;;-2.68;73.47
74542;BME280;63015;45.378;20.360;2024-01-10T00:47:11;102423.03;;;-2.73;73.39
74542;BME280;63015;45.378;20.360;2024-01-10T00:49:11;102415.38;;;-2.73;73.59
74542;BME280;63015;45.378;20.360;2024-01-10T00:51:12;102418.69;;;-2.74;73.66
74542;BME280;63015;45.378;20.360;2024-01-10T00:53:12;102426.22;;;-2.76;73.83
74542;BME280;63015;45.378;20.360;2024-01-10T00:55:13;102421.63;;;-2.80;73.60
74542;BME280;63015;45.378;20.360;2024-01-10T00:57:14;102424.94;;;-2.81;73.70
74542;BME280;63015;45.378;20.360;2024-01-10T00:59:14;102426.63;;;-2.82;73.68
74542;BME280;63015;45.378;20.360;2024-01-10T01:01:15;102427.38;;;-2.83;73.93
74542;BME280;63015;45.378;20.360;2024-01-10T01:03:15;102425.84;;;-2.81;73.81
74542;BME280;63015;45.378;20.360;2024-01-10T01:05:16;102415.13;;;-2.87;73.95
74542;BME280;63015;45.378;20.360;2024-01-10T01:07:16;102422.13;;;-2.84;73.87
74542;BME280;63015;45.378;20.360;2024-01-10T01:09:17;102421.84;;;-2.87;73.80
74542;BME280;63015;45.378;20.360;2024-01-10T01:11:18;102428.75;;;-2.86;73.49
74542;BME280;63015;45.378;20.360;2024-01-10T01:13:18;102427.59;;;-2.90;73.75
74542;BME280;63015;45.378;20.360;2024-01-10T01:15:19;102420.44;;;-2.94;73.78
74542;BME280;63015;45.378;20.360;2024-01-10T01:17:19;102427.72;;;-2.99;73.98
74542;BME280;63015;45.378;20.360;2024-01-10T01:19:20;102426.44;;;-3.04;73.83
74542;BME280;63015;45.378;20.360;2024-01-10T01:21:20;102435.19;;;-3.10;73.94
74542;BME280;63015;45.378;20.360;2024-01-10T01:23:21;102436.72;;;-3.12;74.08
74542;BME280;63015;45.378;20.360;2024-01-10T01:25:21;102432.25;;;-3.15;74.58
74542;BME280;63015;45.378;20.360;2024-01-10T01:27:22;102429.97;;;-3.12;74.14
74542;BME280;63015;45.378;20.360;2024-01-10T01:29:23;102435.34;;;-3.09;74.07
74542;BME280;63015;45.378;20.360;2024-01-10T01:31:24;102433.16;;;-3.04;73.92
74542;BME280;63015;45.378;20.360;2024-01-10T01:33:24;102432.16;;;-3.06;73.96
74542;BME280;63015;45.378;20.360;2024-01-10T01:35:25;102436.97;;;-3.09;74.20
74542;BME280;63015;45.378;20.360;2024-01-10T01:37:26;102432.38;;;-3.14;74.27
74542;BME280;63015;45.378;20.360;2024-01-10T01:39:26;102434.31;;;-3.11;74.01
74542;BME280;63015;45.378;20.360;2024-01-10T01:41:27;102430.59;;;-3.15;73.86
74542;BME280;63015;45.378;20.360;2024-01-10T01:43:27;102432.88;;;-3.18;73.92
74542;BME280;63015;45.378;20.360;2024-01-10T01:45:28;102420.88;;;-3.19;73.79
74542;BME280;63015;45.378;20.360;2024-01-10T01:47:28;102413.72;;;-3.23;74.07
74542;BME280;63015;45.378;20.360;2024-01-10T01:49:29;102413.72;;;-3.23;73.61
74542;BME280;63015;45.378;20.360;2024-01-10T01:51:31;102415.13;;;-3.26;73.87
74542;BME280;63015;45.378;20.360;2024-01-10T01:53:34;102410.66;;;-3.29;74.35
74542;BME280;63015;45.378;20.360;2024-01-10T01:55:35;102405.41;;;-3.31;74.37
74542;BME280;63015;45.378;20.360;2024-01-10T01:57:37;102402.25;;;-3.28;74.36
74542;BME280;63015;45.378;20.360;2024-01-10T01:59:38;102402.63;;;-3.23;74.20
74542;BME280;63015;45.378;20.360;2024-01-10T02:01:39;102396.63;;;-3.24;74.01
74542;BME280;63015;45.378;20.360;2024-01-10T02:03:40;102393.06;;;-3.26;73.68
74542;BME280;63015;45.378;20.360;2024-01-10T02:05:40;102397.41;;;-3.25;74.04
74542;BME280;63015;45.378;20.360;2024-01-10T02:07:41;102397.25;;;-3.26;73.76
74542;BME280;63015;45.378;20.360;2024-01-10T02:09:41;102393.06;;;-3.26;73.77
74542;BME280;63015;45.378;20.360;2024-01-10T02:11:42;102400.47;;;-3.19;73.79
74542;BME280;63015;45.378;20.360;2024-01-10T02:13:43;102396.25;;;-3.18;73.65
74542;BME280;63015;45.378;20.360;2024-01-10T02:15:44;102400.97;;;-3.23;73.40
74542;BME280;63015;45.378;20.360;2024-01-10T02:17:44;102396.63;;;-3.24;73.60
74542;BME280;63015;45.378;20.360;2024-01-10T02:19:45;102399.06;;;-3.25;73.73
74542;BME280;63015;45.378;20.360;2024-01-10T02:21:45;102399.81;;;-3.26;73.75
74542;BME280;63015;45.378;20.360;2024-01-10T02:23:46;102406.81;;;-3.34;73.68
74542;BME280;63015;45.378;20.360;2024-01-10T02:25:46;102398.75;;;-3.39;73.58
74542;BME280;63015;45.378;20.360;2024-01-10T02:27:47;102389.16;;;-3.41;73.97
74542;BME280;63015;45.378;20.360;2024-01-10T02:29:47;102396.69;;;-3.43;73.72
74542;BME280;63015;45.378;20.360;2024-01-10T02:31:48;102398.69;;;-3.49;73.87
74542;BME280;63015;45.378;20.360;2024-01-10T02:33:48;102400.34;;;-3.50;73.76
74542;BME280;63015;45.378;20.360;2024-01-10T02:35:49;102398.69;;;-3.49;74.04
74542;BME280;63015;45.378;20.360;2024-01-10T02:37:50;102392.34;;;-3.44;74.02
74542;BME280;63015;45.378;20.360;2024-01-10T02:39:51;102392.00;;;-3.38;74.30
74542;BME280;63015;45.378;20.360;2024-01-10T02:41:52;102393.94;;;-3.36;73.68
74542;BME280;63015;45.378;20.360;2024-01-10T02:43:53;102392.53;;;-3.32;73.51
74542;BME280;63015;45.378;20.360;2024-01-10T02:45:53;102384.09;;;-3.31;73.57
74542;BME280;63015;45.378;20.360;2024-01-10T02:47:54;102382.06;;;-3.35;73.36
74542;BME280;63015;45.378;20.360;2024-01-10T02:49:54;102388.94;;;-3.34;73.42
74542;BME280;63015;45.378;20.360;2024-01-10T02:51:55;102382.69;;;-3.38;73.57
74542;BME280;63015;45.378;20.360;2024-01-10T02:53:55;102388.53;;;-3.39;73.78
74542;BME280;63015;45.378;20.360;2024-01-10T02:55:56;102400.81;;;-3.35;73.60
74542;BME280;63015;45.378;20.360;2024-01-10T02:57:56;102394.31;;;-3.31;73.67
74542;BME280;63015;45.378;20.360;2024-01-10T02:59:57;102394.81;;;-3.35;73.42
74542;BME280;63015;45.378;20.360;2024-01-10T03:01:57;102395.72;;;-3.35;73.59
74542;BME280;63015;45.378;20.360;2024-01-10T03:03:58;102396.47;;;-3.36;73.56
74542;BME280;63015;45.378;20.360;2024-01-10T03:05:58;102397.72;;;-3.41;73.40
74542;BME280;63015;45.378;20.360;2024-01-10T03:07:59;102401.03;;;-3.42;73.47
74542;BME280;63015;45.378;20.360;2024-01-10T03:10:01;102406.63;;;-3.46;73.38
74542;BME280;63015;45.378;20.360;2024-01-10T03:12:02;102400.63;;;-3.47;73.43
74542;BME280;63015;45.378;20.360;2024-01-10T03:14:04;102410.06;;;-3.45;73.45
74542;BME280;63015;45.378;20.360;2024-01-10T03:16:07;102408.44;;;-3.45;73.32
74542;BME280;63015;45.378;20.360;2024-01-10T03:18:07;102410.81;;;-3.47;73.21
74542;BME280;63015;45.378;20.360;2024-01-10T03:20:08;102411.72;;;-3.46;73.28
74542;BME280;63015;45.378;20.360;2024-01-10T03:22:09;102410.81;;;-3.47;73.50
74542;BME280;63015;45.378;20.360;2024-01-10T03:24:11;102414.28;;;-3.46;73.50
74542;BME280;63015;45.378;20.360;2024-01-10T03:26:11;102405.88;;;-3.45;73.47
74542;BME280;63015;45.378;20.360;2024-01-10T03:28:15;102410.06;;;-3.45;73.21
74542;BME280;63015;45.378;20.360;2024-01-10T03:30:16;102410.97;;;-3.45;73.35
74542;BME280;63015;45.378;20.360;2024-01-10T03:32:18;102399.72;;;-3.47;73.36
74542;BME280;63015;45.378;20.360;2024-01-10T03:34:18;102404.84;;;-3.47;73.29
74542;BME280;63015;45.378;20.360;2024-01-10T03:36:19;102401.25;;;-3.49;73.07
74542;BME280;63015;45.378;20.360;2024-01-10T03:38:20;102394.22;;;-3.52;73.34
74542;BME280;63015;45.378;20.360;2024-01-10T03:40:20;102402.16;;;-3.49;73.11
74542;BME280;63015;45.378;20.360;2024-01-10T03:42:21;102402.16;;;-3.49;73.30
74542;BME280;63015;45.378;20.360;2024-01-10T03:44:21;102391.66;;;-3.52;73.01
74542;BME280;63015;45.378;20.360;2024-01-10T03:46:21;102396.63;;;-3.53;73.36
74542;BME280;63015;45.378;20.360;2024-01-10T03:48:22;102392.66;;;-3.60;73.20
74542;BME280;63015;45.378;20.360;2024-01-10T03:50:23;102394.97;;;-3.63;73.34
74542;BME280;63015;45.378;20.360;2024-01-10T03:52:24;102393.03;;;-3.66;73.61
74542;BME280;63015;45.378;20.360;2024-01-10T03:54:24;102388.06;;;-3.64;73.42
74542;BME280;63015;45.378;20.360;2024-01-10T03:56:25;102391.50;;;-3.64;73.38
74542;BME280;63015;45.378;20.360;2024-01-10T03:58:26;102386.41;;;-3.64;73.44
74542;BME280;63015;45.378;20.360;2024-01-10T04:00:27;102396.59;;;-3.64;73.35
74542;BME280;63015;45.378;20.360;2024-01-10T04:02:27;102398.25;;;-3.64;73.38
74542;BME280;63015;45.378;20.360;2024-01-10T04:04:28;102396.47;;;-3.65;73.40
74542;BME280;63015;45.378;20.360;2024-01-10T04:06:28;102382.84;;;-3.66;73.45
74542;BME280;63015;45.378;20.360;2024-01-10T04:08:30;102392.00;;;-3.68;73.50
74542;BME280;63015;45.378;20.360;2024-01-10T04:10:30;102389.44;;;-3.68;73.59
74542;BME280;63015;45.378;20.360;2024-01-10T04:12:31;102393.50;;;-3.70;73.86
74542;BME280;63015;45.378;20.360;2024-01-10T04:14:31;102395.91;;;-3.71;74.08
74542;BME280;63015;45.378;20.360;2024-01-10T04:16:32;102395.16;;;-3.70;74.13
74542;BME280;63015;45.378;20.360;2024-01-10T04:18:32;102401.00;;;-3.71;74.01
74542;BME280;63015;45.378;20.360;2024-01-10T04:20:33;102408.94;;;-3.68;74.08
74542;BME280;63015;45.378;20.360;2024-01-10T04:22:33;102406.41;;;-3.68;73.77
74542;BME280;63015;45.378;20.360;2024-01-10T04:24:34;102408.31;;;-3.66;73.92
74542;BME280;63015;45.378;20.360;2024-01-10T04:26:34;102408.59;;;-3.63;73.91
74542;BME280;63015;45.378;20.360;2024-01-10T04:28:35;102408.59;;;-3.63;73.80
74542;BME280;63015;45.378;20.360;2024-01-10T04:30:35;102412.31;;;-3.59;73.77
74542;BME280;63015;45.378;20.360;2024-01-10T04:32:36;102417.09;;;-3.62;73.73
74542;BME280;63015;45.378;20.360;2024-01-10T04:34:36;102408.38;;;-3.55;73.64
74542;BME280;63015;45.378;20.360;2024-01-10T04:36:37;102419.31;;;-3.56;73.88
74542;BME280;63015;45.378;20.360;2024-01-10T04:38:37;102410.25;;;-3.63;73.80
74542;BME280;63015;45.378;20.360;2024-01-10T04:40:38;102420.44;;;-3.63;73.89
74542;BME280;63015;45.378;20.360;2024-01-10T04:42:38;102419.47;;;-3.74;74.37
74542;BME280;63015;45.378;20.360;2024-01-10T04:44:39;102424.19;;;-3.78;74.59
74542;BME280;63015;45.378;20.360;2024-01-10T04:46:39;102429.09;;;-3.80;74.36
74542;BME280;63015;45.378;20.360;2024-01-10T04:48:41;102424.63;;;-3.83;74.15
74542;BME280;63015;45.378;20.360;2024-01-10T04:50:42;102420.09;;;-3.96;74.63
74542;BME280;63015;45.378;20.360;2024-01-10T04:52:42;102435.09;;;-3.99;74.83
74542;BME280;63015;45.378;20.360;2024-01-10T04:54:43;102428.72;;;-4.04;74.88
74542;BME280;63015;45.378;20.360;2024-01-10T04:56:43;102429.59;;;-4.03;74.68
74542;BME280;63015;45.378;20.360;2024-01-10T04:58:44;102426.91;;;-4.05;74.66
74542;BME280;63015;45.378;20.360;2024-01-10T05:00:45;102429.59;;;-4.03;74.51
74542;BME280;63015;45.378;20.360;2024-01-10T05:02:45;102432.13;;;-4.03;74.67
74542;BME280;63015;45.378;20.360;2024-01-10T05:04:46;102432.31;;;-4.02;74.49
74542;BME280;63015;45.378;20.360;2024-01-10T05:06:46;102434.84;;;-4.02;74.37
74542;BME280;63015;45.378;20.360;2024-01-10T05:08:47;102438.16;;;-4.03;74.46
74542;BME280;63015;45.378;20.360;2024-01-10T05:10:47;102433.94;;;-4.02;74.36
74542;BME280;63015;45.378;20.360;2024-01-10T05:12:48;102439.16;;;-4.01;74.69
74542;BME280;63015;45.378;20.360;2024-01-10T05:14:48;102441.88;;;-3.99;74.33
74542;BME280;63015;45.378;20.360;2024-01-10T05:16:49;102437.66;;;-3.99;74.27
74542;BME280;63015;45.378;20.360;2024-01-10T05:18:49;102439.59;;;-3.96;74.24
74542;BME280;63015;45.378;20.360;2024-01-10T05:20:49;102443.19;;;-3.94;74.17
74542;BME280;63015;45.378;20.360;2024-01-10T05:22:50;102435.53;;;-3.94;74.42
74542;BME280;63015;45.378;20.360;2024-01-10T05:24:50;102440.63;;;-3.94;74.36
74542;BME280;63015;45.378;20.360;2024-01-10T05:26:51;102446.75;;;-3.92;74.30
74542;BME280;63015;45.378;20.360;2024-01-10T05:28:52;102443.44;;;-3.91;74.14
74542;BME280;63015;45.378;20.360;2024-01-10T05:30:52;102447.03;;;-3.89;73.93
74542;BME280;63015;45.378;20.360;2024-01-10T05:32:54;102453.00;;;-3.88;74.19
74542;BME280;63015;45.378;20.360;2024-01-10T05:34:54;102447.78;;;-3.90;74.13
74542;BME280;63015;45.378;20.360;2024-01-10T05:36:55;102447.78;;;-3.90;74.08
74542;BME280;63015;45.378;20.360;2024-01-10T05:38:55;102448.53;;;-3.91;73.97
74542;BME280;63015;45.378;20.360;2024-01-10T05:40:56;102444.50;;;-3.89;73.89
74542;BME280;63015;45.378;20.360;2024-01-10T05:42:57;102451.22;;;-3.89;73.56
74542;BME280;63015;45.378;20.360;2024-01-10T05:44:57;102442.88;;;-3.97;73.59
74542;BME280;63015;45.378;20.360;2024-01-10T05:46:58;102445.66;;;-4.04;73.56
74542;BME280;63015;45.378;20.360;2024-01-10T05:49:01;102451.69;;;-4.13;73.66
74542;BME280;63015;45.378;20.360;2024-01-10T05:51:04;102449.63;;;-4.17;73.79
74542;BME280;63015;45.378;20.360;2024-01-10T05:53:05;102453.41;;;-4.22;73.75
74542;BME280;63015;45.378;20.360;2024-01-10T05:55:06;102448.16;;;-4.23;73.77
74542;BME280;63015;45.378;20.360;2024-01-10T05:57:08;102448.34;;;-4.31;73.98
74542;BME280;63015;45.378;20.360;2024-01-10T05:59:09;102450.75;;;-4.32;73.96
74542;BME280;63015;45.378;20.360;2024-01-10T06:01:12;102448.56;;;-4.38;74.35
74542;BME280;63015;45.378;20.360;2024-01-10T06:03:13;102448.09;;;-4.34;74.09
74542;BME280;63015;45.378;20.360;2024-01-10T06:05:13;102452.44;;;-4.33;73.88
74542;BME280;63015;45.378;20.360;2024-01-10T06:07:14;102452.25;;;-4.34;74.00
74542;BME280;63015;45.378;20.360;2024-01-10T06:09:14;102460.19;;;-4.31;73.95
74542;BME280;63015;45.378;20.360;2024-01-10T06:11:15;102459.91;;;-4.34;73.70
74542;BME280;63015;45.378;20.360;2024-01-10T06:13:16;102469.84;;;-4.46;73.53
74542;BME280;63015;45.378;20.360;2024-01-10T06:15:16;102460.22;;;-4.68;73.20
74542;BME280;63015;45.378;20.360;2024-01-10T06:17:17;102464.19;;;-4.89;73.02
74542;BME280;63015;45.378;20.360;2024-01-10T06:19:17;102474.25;;;-4.99;73.37
74542;BME280;63015;45.378;20.360;2024-01-10T06:21:19;102473.84;;;-5.13;73.70
74542;BME280;63015;45.378;20.360;2024-01-10T06:23:19;102477.28;;;-5.21;73.95
74542;BME280;63015;45.378;20.360;2024-01-10T06:25:19;102477.28;;;-5.30;74.14
74542;BME280;63015;45.378;20.360;2024-01-10T06:27:20;102482.53;;;-5.28;74.13
74542;BME280;63015;45.378;20.360;2024-01-10T06:29:20;102481.50;;;-5.39;74.07
74542;BME280;63015;45.378;20.360;2024-01-10T06:31:21;102479.13;;;-5.55;74.75
74542;BME280;63015;45.378;20.360;2024-01-10T06:33:21;102487.03;;;-5.52;74.85
74542;BME280;63015;45.378;20.360;2024-01-10T06:35:22;102485.84;;;-5.55;74.76
74542;BME280;63015;45.378;20.360;2024-01-10T06:37:22;102481.06;;;-5.61;75.07
74542;BME280;63015;45.378;20.360;2024-01-10T06:39:23;102487.47;;;-5.65;74.95
74542;BME280;63015;45.378;20.360;2024-01-10T06:41:23;102487.94;;;-5.69;74.90
74542;BME280;63015;45.378;20.360;2024-01-10T06:43:26;102484.66;;;-5.68;74.92
74542;BME280;63015;45.378;20.360;2024-01-10T06:45:27;102488.09;;;-5.67;74.90
74542;BME280;63015;45.378;20.360;2024-01-10T06:47:27;102490.47;;;-5.60;74.79
74542;BME280;63015;45.378;20.360;2024-01-10T06:49:28;102491.97;;;-5.53;75.16
74542;BME280;63015;45.378;20.360;2024-01-10T06:51:28;102489.13;;;-5.48;74.55
74542;BME280;63015;45.378;20.360;2024-01-10T06:53:29;102497.06;;;-5.45;74.43
74542;BME280;63015;45.378;20.360;2024-01-10T06:55:29;102498.69;;;-5.45;74.29
74542;BME280;63015;45.378;20.360;2024-01-10T06:57:30;102497.81;;;-5.46;74.47
74542;BME280;63015;45.378;20.360;2024-01-10T06:59:30;102496.75;;;-5.48;74.71
74542;BME280;63015;45.378;20.360;2024-01-10T07:01:31;102495.09;;;-5.38;74.71
74542;BME280;63015;45.378;20.360;2024-01-10T07:03:32;102493.44;;;-5.20;74.56
74542;BME280;63015;45.378;20.360;2024-01-10T07:05:32;102493.59;;;-5.10;74.45
74542;BME280;63015;45.378;20.360;2024-01-10T07:07:33;102492.97;;;-5.07;74.28
74542;BME280;63015;45.378;20.360;2024-01-10T07:09:35;102494.44;;;-4.92;73.92
74542;BME280;63015;45.378;20.360;2024-01-10T07:11:36;102491.91;;;-4.92;73.96
74542;BME280;63015;45.378;20.360;2024-01-10T07:13:36;102488.28;;;-4.94;74.13
74542;BME280;63015;45.378;20.360;2024-01-10T07:15:36;102491.22;;;-4.81;74.11
74542;BME280;63015;45.378;20.360;2024-01-10T07:17:39;102485.53;;;-4.78;73.87
74542;BME280;63015;45.378;20.360;2024-01-10T07:19:40;102489.38;;;-4.64;74.19
74542;BME280;63015;45.378;20.360;2024-01-10T07:21:41;102483.06;;;-4.50;73.82
74542;BME280;63015;45.378;20.360;2024-01-10T07:23:42;102487.97;;;-4.43;73.58
74542;BME280;63015;45.378;20.360;2024-01-10T07:25:43;102481.78;;;-4.36;73.49
74542;BME280;63015;45.378;20.360;2024-01-10T07:27:44;102483.50;;;-4.26;73.53
74542;BME280;63015;45.378;20.360;2024-01-10T07:29:44;102479.81;;;-4.11;73.50
74542;BME280;63015;45.378;20.360;2024-01-10T07:31:46;102481.63;;;-4.10;72.90
74542;BME280;63015;45.378;20.360;2024-01-10T07:33:46;102474.91;;;-4.09;73.12
74542;BME280;63015;45.378;20.360;2024-01-10T07:35:47;102487.09;;;-3.97;73.13
74542;BME280;63015;45.378;20.360;2024-01-10T07:37:47;102486.00;;;-3.90;72.99
74542;BME280;63015;45.378;20.360;2024-01-10T07:39:48;102487.44;;;-3.83;72.97
74542;BME280;63015;45.378;20.360;2024-01-10T07:41:48;102485.59;;;-3.75;72.60
74542;BME280;63015;45.378;20.360;2024-01-10T07:43:50;102480.69;;;-3.83;72.61
74542;BME280;63015;45.378;20.360;2024-01-10T07:45:50;102487.78;;;-3.70;72.57
74542;BME280;63015;45.378;20.360;2024-01-10T07:47:51;102486.97;;;-3.60;72.51
74542;BME280;63015;45.378;20.360;2024-01-10T07:49:51;102478.28;;;-3.43;72.71
74542;BME280;63015;45.378;20.360;2024-01-10T07:51:52;102484.97;;;-3.35;72.10
74542;BME280;63015;45.378;20.360;2024-01-10T07:53:53;102489.28;;;-3.34;72.00
74542;BME280;63015;45.378;20.360;2024-01-10T07:55:53;102485.09;;;-3.33;72.33
74542;BME280;63015;45.378;20.360;2024-01-10T07:57:54;102483.56;;;-3.31;72.11
74542;BME280;63015;45.378;20.360;2024-01-10T07:59:54;102483.97;;;-3.26;72.36
74542;BME280;63015;45.378;20.360;2024-01-10T08:01:56;102486.56;;;-3.16;72.12
74542;BME280;63015;45.378;20.360;2024-01-10T08:03:58;102489.38;;;-3.13;72.59
74542;BME280;63015;45.378;20.360;2024-01-10T08:05:59;102484.50;;;-3.20;72.18
74542;BME280;63015;45.378;20.360;2024-01-10T08:07:59;102482.25;;;-3.07;72.48
74542;BME280;63015;45.378;20.360;2024-01-10T08:10:00;102483.69;;;-3.00;72.31
74542;BME280;63015;45.378;20.360;2024-01-10T08:12:00;102482.22;;;-2.88;72.21
74542;BME280;63015;45.378;20.360;2024-01-10T08:14:01;102484.69;;;-2.79;72.25
74542;BME280;63015;45.378;20.360;2024-01-10T08:16:01;102491.28;;;-2.81;72.01
74542;BME280;63015;45.378;20.360;2024-01-10T08:18:04;102486.94;;;-2.82;71.96
74542;BME280;63015;45.378;20.360;2024-01-10T08:20:07;102488.09;;;-2.78;72.08
74542;BME280;63015;45.378;20.360;2024-01-10T08:22:08;102488.88;;;-2.79;72.19
74542;BME280;63015;45.378;20.360;2024-01-10T08:24:08;102495.78;;;-2.68;72.47
74542;BME280;63015;45.378;20.360;2024-01-10T08:26:09;102489.19;;;-2.66;72.58
74542;BME280;63015;45.378;20.360;2024-01-10T08:28:09;102483.06;;;-2.48;72.55
74542;BME280;63015;45.378;20.360;2024-01-10T08:30:10;102491.91;;;-2.44;71.81
74542;BME280;63015;45.378;20.360;2024-01-10T08:32:11;102487.44;;;-2.46;72.23
74542;BME280;63015;45.378;20.360;2024-01-10T08:34:11;102490.75;;;-2.37;72.20
74542;BME280;63015;45.378;20.360;2024-01-10T08:36:13;102489.00;;;-2.28;72.50
74542;BME280;63015;45.378;20.360;2024-01-10T08:38:14;102491.94;;;-2.13;72.20
74542;BME280;63015;45.378;20.360;2024-01-10T08:40:15;102496.69;;;-2.07;71.89
74542;BME280;63015;45.378;20.360;2024-01-10T08:42:16;102493.59;;;-1.93;71.90
74542;BME280;63015;45.378;20.360;2024-01-10T08:44:17;102494.88;;;-1.88;71.44
74542;BME280;63015;45.378;20.360;2024-01-10T08:46:17;102490.53;;;-1.89;71.82
74542;BME280;63015;45.378;20.360;2024-01-10T08:48:18;102493.47;;;-1.84;71.69
74542;BME280;63015;45.378;20.360;2024-01-10T08:50:18;102496.41;;;-1.79;71.50
74542;BME280;63015;45.378;20.360;2024-01-10T08:52:19;102490.66;;;-1.77;71.31
74542;BME280;63015;45.378;20.360;2024-01-10T08:54:19;102493.59;;;-1.72;71.56
74542;BME280;63015;45.378;20.360;2024-01-10T08:56:23;102499.06;;;-1.57;71.50
74542;BME280;63015;45.378;20.360;2024-01-10T08:58:24;102498.78;;;-1.40;71.63
74542;BME280;63015;45.378;20.360;2024-01-10T09:00:24;102491.69;;;-1.22;71.31
74542;BME280;63015;45.378;20.360;2024-01-10T09:02:25;102492.91;;;-1.06;71.03
74542;BME280;63015;45.378;20.360;2024-01-10T09:04:27;102485.06;;;-0.97;70.71
74542;BME280;63015;45.378;20.360;2024-01-10T09:06:28;102497.72;;;-0.89;70.90
74542;BME280;63015;45.378;20.360;2024-01-10T09:08:28;102492.06;;;-0.85;70.44
74542;BME280;63015;45.378;20.360;2024-01-10T09:10:29;102491.78;;;-0.88;70.26
74542;BME280;63015;45.378;20.360;2024-01-10T09:12:29;102494.34;;;-0.88;70.63
74542;BME280;63015;45.378;20.360;2024-01-10T09:14:30;102486.03;;;-0.85;70.28
74542;BME280;63015;45.378;20.360;2024-01-10T09:16:30;102488.53;;;-0.75;70.45
74542;BME280;63015;45.378;20.360;2024-01-10T09:18:31;102481.00;;;-0.73;70.51
74542;BME280;63015;45.378;20.360;2024-01-10T09:20:31;102487.47;;;-0.67;70.63
74542;BME280;63015;45.378;20.360;2024-01-10T09:22:32;102485.03;;;-0.65;70.50
74542;BME280;63015;45.378;20.360;2024-01-10T09:24:32;102487.16;;;-0.59;70.45
74542;BME280;63015;45.378;20.360;2024-01-10T09:26:33;102487.00;;;-0.51;70.43
74542;BME280;63015;45.378;20.360;2024-01-10T09:28:33;102488.78;;;-0.50;70.24
74542;BME280;63015;45.378;20.360;2024-01-10T09:30:34;102483.13;;;-0.45;69.73
74542;BME280;63015;45.378;20.360;2024-01-10T09:32:34;102477.81;;;-0.37;70.07
74542;BME280;63015;45.378;20.360;2024-01-10T09:34:37;102480.28;;;-0.26;69.99
74542;BME280;63015;45.378;20.360;2024-01-10T09:36:38;102473.56;;;-0.14;70.00
74542;BME280;63015;45.378;20.360;2024-01-10T09:38:38;102478.03;;;-0.11;69.37
74542;BME280;63015;45.378;20.360;2024-01-10T09:40:39;102474.22;;;-0.17;69.45
74542;BME280;63015;45.378;20.360;2024-01-10T09:42:40;102476.78;;;-0.17;69.02
74542;BME280;63015;45.378;20.360;2024-01-10T09:44:41;102472.88;;;-0.11;69.55
74542;BME280;63015;45.378;20.360;2024-01-10T09:46:43;102479.72;;;0.00;69.82
74542;BME280;63015;45.378;20.360;2024-01-10T09:48:46;102473.59;;;0.10;69.13
74542;BME280;63015;45.378;20.360;2024-01-10T09:50:49;102478.44;;;-0.17;68.26
74542;BME280;63015;45.378;20.360;2024-01-10T09:52:52;102474.78;;;-0.09;69.21
74542;BME280;63015;45.378;20.360;2024-01-10T09:54:56;102475.38;;;-0.01;69.28
74542;BME280;63015;45.378;20.360;2024-01-10T09:56:57;102467.53;;;-0.03;68.76
74542;BME280;63015;45.378;20.360;2024-01-10T09:58:58;102474.16;;;0.06;69.23
74542;BME280;63015;45.378;20.360;2024-01-10T10:01:01;102469.47;;;0.00;68.92
74542;BME280;63015;45.378;20.360;2024-01-10T10:03:07;102465.13;;;-0.01;68.86
74542;BME280;63015;45.378;20.360;2024-01-10T10:05:15;102467.91;;;0.02;69.36
74542;BME280;63015;45.378;20.360;2024-01-10T10:07:16;102460.44;;;0.05;69.00
74542;BME280;63015;45.378;20.360;2024-01-10T10:09:17;102462.69;;;0.12;69.08
74542;BME280;63015;45.378;20.360;2024-01-10T10:11:18;102458.88;;;0.19;69.20
74542;BME280;63015;45.378;20.360;2024-01-10T10:13:26;102450.31;;;0.19;68.38
74542;BME280;63015;45.378;20.360;2024-01-10T10:15:27;102455.22;;;0.15;68.45
74542;BME280;63015;45.378;20.360;2024-01-10T10:17:28;102453.19;;;0.11;68.73
74542;BME280;63015;45.378;20.360;2024-01-10T10:19:28;102452.97;;;0.20;69.04
74542;BME280;63015;45.378;20.360;2024-01-10T10:21:29;102443.97;;;0.25;69.15
74542;BME280;63015;45.378;20.360;2024-01-10T10:23:30;102443.06;;;0.37;69.51